createdAt,value
2023-01-29T00:02:50.053Z,101503.16
2023-01-29T00:05:52.296Z,101494.50
2023-01-29T00:08:54.603Z,101513.91
2023-01-29T00:11:57.237Z,101503.44
2023-01-29T00:14:59.338Z,101509.53
2023-01-29T00:18:02.520Z,101519.13
2023-01-29T00:21:09.267Z,101517.88
2023-01-29T00:24:11.852Z,101519.28
2023-01-29T00:27:14.077Z,101522.09
2023-01-29T00:30:20.108Z,101528.19
2023-01-29T00:33:23.336Z,101514.72
2023-01-29T00:36:26.739Z,101513.63
2023-01-29T00:39:47.564Z,101514.31
2023-01-29T00:43:09.055Z,101519.13
2023-01-29T00:46:11.585Z,101523.81
2023-01-29T00:49:13.826Z,101507.25
2023-01-29T00:52:25.407Z,101529.03
2023-01-29T00:55:27.645Z,101523.81
2023-01-29T00:58:34.693Z,101514.19
2023-01-29T01:01:55.707Z,101530.59
2023-01-29T01:04:57.777Z,101524.09
2023-01-29T01:07:59.932Z,101532.56
2023-01-29T01:11:05.553Z,101534.53
2023-01-29T01:14:08.155Z,101531.16
2023-01-29T01:17:10.246Z,101517.00
2023-01-29T01:20:13.519Z,101530.16
2023-01-29T01:23:15.805Z,101530.03
2023-01-29T01:26:19.008Z,101531.28
2023-01-29T01:29:21.198Z,101533.44
2023-01-29T01:32:23.295Z,101531.16
2023-01-29T01:35:25.302Z,101519.13
2023-01-29T01:38:27.643Z,101549.84
2023-01-29T01:41:30.820Z,101544.75
2023-01-29T01:45:18.683Z,101539.53
2023-01-29T01:48:26.955Z,101543.47
2023-01-29T01:51:32.949Z,101544.47
2023-01-29T01:54:35.104Z,101538.22
2023-01-29T01:57:37.289Z,101552.25
2023-01-29T02:00:40.158Z,101554.81
2023-01-29T02:04:06.674Z,101563.13
2023-01-29T02:07:33.145Z,101559.28
2023-01-29T02:10:46.914Z,101565.34
2023-01-29T02:13:53.906Z,101569.72
2023-01-29T02:17:01.873Z,101569.88
2023-01-29T02:20:17.983Z,101569.59
2023-01-29T02:23:38.271Z,101578.81
2023-01-29T02:26:50.948Z,101581.22
2023-01-29T02:30:09.367Z,101580.91
2023-01-29T02:33:39.553Z,101579.53
2023-01-29T02:36:49.259Z,101554.75
2023-01-29T02:40:00.983Z,101571.47
2023-01-29T02:43:11.858Z,101577.22
2023-01-29T02:46:35.394Z,101590.56
2023-01-29T02:50:07.629Z,101581.38
2023-01-29T02:53:16.763Z,101586.75
2023-01-29T02:56:25.821Z,101585.88
2023-01-29T02:59:37.340Z,101589.44
2023-01-29T03:02:54.562Z,101603.25
2023-01-29T03:06:07.951Z,101593.34
2023-01-29T03:09:16.719Z,101604.09
2023-01-29T03:12:34.241Z,101594.34
2023-01-29T03:15:47.598Z,101609.34
2023-01-29T03:19:07.292Z,101605.25
2023-01-29T03:22:11.574Z,101609.06
2023-01-29T03:25:34.409Z,101603.44
2023-01-29T03:28:55.919Z,101600.16
2023-01-29T03:32:05.605Z,101592.63
2023-01-29T03:35:11.506Z,101597.03
2023-01-29T03:38:13.869Z,101598.63
2023-01-29T03:41:22.536Z,101609.13
2023-01-29T03:44:44.024Z,101608.25
2023-01-29T03:48:16.656Z,101601.72
2023-01-29T03:51:24.412Z,101616.00
2023-01-29T03:54:49.620Z,101605.94
2023-01-29T03:58:30.925Z,101606.53
2023-01-29T04:01:42.991Z,101608.38
2023-01-29T04:04:52.209Z,101603.06
2023-01-29T04:08:03.228Z,101604.09
2023-01-29T04:11:12.114Z,101596.63
2023-01-29T04:14:15.175Z,101604.91
2023-01-29T04:17:40.900Z,101610.84
2023-01-29T04:20:55.189Z,101595.09
2023-01-29T04:23:57.503Z,101607.25
2023-01-29T04:27:28.366Z,101606.03
2023-01-29T04:30:55.330Z,101601.78
2023-01-29T04:34:25.867Z,101602.91
2023-01-29T04:37:40.348Z,101592.41
2023-01-29T04:41:12.239Z,101600.88
2023-01-29T04:44:21.037Z,101603.28
2023-01-29T04:47:45.050Z,101607.09
2023-01-29T04:50:59.342Z,101613.25
2023-01-29T04:54:16.599Z,101606.53
2023-01-29T04:57:33.708Z,101621.16
2023-01-29T05:00:43.252Z,101622.59
2023-01-29T05:03:50.263Z,101612.75
2023-01-29T05:06:53.485Z,101619.19
2023-01-29T05:09:57.109Z,101619.59
2023-01-29T05:13:03.385Z,101628.25
2023-01-29T05:16:13.812Z,101620.88
2023-01-29T05:19:17.017Z,101628.69
2023-01-29T05:22:22.862Z,101638.44
2023-01-29T05:25:28.894Z,101629.53
2023-01-29T05:28:31.213Z,101636.31
2023-01-29T05:31:33.519Z,101632.47
2023-01-29T05:34:35.792Z,101635.44
2023-01-29T05:37:37.886Z,101631.22
2023-01-29T05:40:40.154Z,101626.25
2023-01-29T05:43:42.169Z,101633.50
2023-01-29T05:46:45.229Z,101639.72
2023-01-29T05:49:47.467Z,101641.72
2023-01-29T05:52:49.525Z,101635.47
2023-01-29T05:55:51.898Z,101640.41
2023-01-29T05:58:53.980Z,101642.13
2023-01-29T06:01:56.463Z,101641.56
2023-01-29T06:04:58.493Z,101643.25
2023-01-29T06:08:00.655Z,101647.94
2023-01-29T06:11:03.427Z,101644.09
2023-01-29T06:14:05.587Z,101653.28
2023-01-29T06:17:08.106Z,101645.78
2023-01-29T06:20:10.874Z,101644.38
2023-01-29T06:23:13.010Z,101655.00
2023-01-29T06:26:16.390Z,101653.00
2023-01-29T06:29:18.540Z,101662.09
2023-01-29T06:32:20.716Z,101660.53
2023-01-29T06:35:22.934Z,101670.28
2023-01-29T06:38:26.680Z,101657.00
2023-01-29T06:41:28.821Z,101669.03
2023-01-29T06:44:30.835Z,101651.91
2023-01-29T06:47:33.041Z,101639.25
2023-01-29T06:50:35.050Z,101664.91
2023-01-29T06:53:38.559Z,101657.00
2023-01-29T06:56:40.854Z,101660.84
2023-01-29T06:59:45.425Z,101660.13
2023-01-29T07:02:50.399Z,101660.69
2023-01-29T07:05:53.168Z,101657.84
2023-01-29T07:08:55.958Z,101670.88
2023-01-29T07:11:57.905Z,101655.88
2023-01-29T07:15:00.196Z,101652.31
2023-01-29T07:18:12.052Z,101650.06
2023-01-29T07:21:14.159Z,101656.03
2023-01-29T07:24:16.606Z,101665.50
2023-01-29T07:27:18.709Z,101659.56
2023-01-29T07:30:21.723Z,101657.44
2023-01-29T07:33:24.100Z,101657.88
2023-01-29T07:36:27.498Z,101651.50
2023-01-29T07:39:29.549Z,101649.22
2023-01-29T07:42:34.791Z,101658.44
2023-01-29T07:45:38.968Z,101658.59
2023-01-29T07:48:41.082Z,101647.38
2023-01-29T07:51:43.098Z,101662.53
2023-01-29T07:54:45.179Z,101668.63
2023-01-29T07:57:47.738Z,101663.81
2023-01-29T08:00:49.986Z,101669.59
2023-01-29T08:04:02.031Z,101677.38
2023-01-29T08:07:07.269Z,101653.31
2023-01-29T08:10:09.968Z,101667.34
2023-01-29T08:13:12.265Z,101664.94
2023-01-29T08:16:14.713Z,101680.81
2023-01-29T08:19:16.828Z,101676.16
2023-01-29T08:22:18.892Z,101689.31
2023-01-29T08:25:22.712Z,101691.19
2023-01-29T08:28:25.152Z,101696.84
2023-01-29T08:31:27.430Z,101674.56
2023-01-29T08:34:29.548Z,101692.13
2023-01-29T08:37:31.766Z,101692.56
2023-01-29T08:40:35.209Z,101702.91
2023-01-29T08:43:37.391Z,101698.25
2023-01-29T08:46:40.945Z,101700.78
2023-01-29T08:49:43.035Z,101703.75
2023-01-29T08:52:45.729Z,101701.19
2023-01-29T08:55:49.076Z,101698.22
2023-01-29T08:58:52.023Z,101693.56
2023-01-29T09:01:54.139Z,101690.84
2023-01-29T09:04:56.582Z,101684.38
2023-01-29T09:08:01.969Z,101686.06
2023-01-29T09:11:05.686Z,101692.00
2023-01-29T09:14:07.785Z,101689.16
2023-01-29T09:17:09.818Z,101700.66
2023-01-29T09:20:12.162Z,101693.13
2023-01-29T09:23:14.297Z,101686.63
2023-01-29T09:26:16.350Z,101691.72
2023-01-29T09:29:20.911Z,101672.88
2023-01-29T09:32:51.600Z,101677.72
2023-01-29T09:35:49.129Z,101678.69
2023-01-29T09:38:51.857Z,101675.16
2023-01-29T09:42:19.087Z,101679.97
2023-01-29T09:45:29.035Z,101670.75
2023-01-29T09:48:34.586Z,101664.81
2023-01-29T09:51:46.970Z,101676.44
2023-01-29T09:55:22.765Z,101670.91
2023-01-29T09:58:40.073Z,101683.09
2023-01-29T10:02:27.812Z,101672.03
2023-01-29T10:05:45.930Z,101669.22
2023-01-29T10:09:25.524Z,101670.91
2023-01-29T10:12:37.118Z,101662.81
2023-01-29T10:15:50.123Z,101642.84
2023-01-29T10:19:36.997Z,101652.63
2023-01-29T10:22:55.467Z,101643.41
2023-01-29T10:25:58.014Z,101647.81
2023-01-29T10:29:07.265Z,101643.44
2023-01-29T10:32:20.571Z,101639.06
2023-01-29T10:35:32.219Z,101643.44
2023-01-29T10:38:37.848Z,101641.84
2023-01-29T10:42:17.958Z,101645.41
2023-01-29T10:45:54.586Z,101639.75
2023-01-29T10:49:11.569Z,101635.19
2023-01-29T10:52:52.329Z,101639.59
2023-01-29T10:56:22.643Z,101634.50
2023-01-29T10:59:43.203Z,101603.94
2023-01-29T11:02:50.835Z,101627.00
2023-01-29T11:06:28.780Z,101624.47
2023-01-29T11:09:37.263Z,101617.38
2023-01-29T11:12:39.680Z,101630.25
2023-01-29T11:15:41.818Z,101613.69
2023-01-29T11:19:16.620Z,101610.00
2023-01-29T11:22:21.615Z,101612.97
2023-01-29T11:25:24.140Z,101605.47
2023-01-29T11:28:39.488Z,101613.78
2023-01-29T11:31:41.830Z,101601.78
2023-01-29T11:35:03.349Z,101613.41
2023-01-29T11:38:27.372Z,101610.16
2023-01-29T11:41:29.407Z,101605.19
2023-01-29T11:44:31.429Z,101604.06
2023-01-29T11:47:34.076Z,101600.22
2023-01-29T11:50:36.190Z,101601.38
2023-01-29T11:53:45.246Z,101603.22
2023-01-29T11:56:48.292Z,101597.28
2023-01-29T11:59:52.699Z,101600.09
2023-01-29T12:02:57.004Z,101596.84
2023-01-29T12:06:03.905Z,101591.72
2023-01-29T12:09:16.090Z,101590.75
2023-01-29T12:12:42.390Z,101597.25
2023-01-29T12:15:44.932Z,101599.66
2023-01-29T12:18:53.388Z,101593.41
2023-01-29T12:22:03.032Z,101606.88
2023-01-29T12:25:50.666Z,101606.75
2023-01-29T12:29:22.420Z,101605.75
2023-01-29T12:32:41.212Z,101610.00
2023-01-29T12:35:57.754Z,101608.03
2023-01-29T12:39:02.065Z,101607.03
2023-01-29T12:42:31.073Z,101606.47
2023-01-29T12:45:35.174Z,101610.00
2023-01-29T12:48:40.164Z,101614.97
2023-01-29T12:51:58.944Z,101610.44
2023-01-29T12:55:06.701Z,101620.75
2023-01-29T12:58:12.225Z,101623.75
2023-01-29T13:01:26.194Z,101626.56
2023-01-29T13:04:34.463Z,101625.59
2023-01-29T13:07:46.578Z,101619.38
2023-01-29T13:10:54.165Z,101624.03
2023-01-29T13:14:13.661Z,101623.31
2023-01-29T13:17:34.321Z,101610.88
2023-01-29T13:20:39.195Z,101625.31
2023-01-29T13:23:48.621Z,101625.72
2023-01-29T13:26:51.700Z,101599.81
2023-01-29T13:29:55.503Z,101609.44
2023-01-29T13:33:11.377Z,101611.97
2023-01-29T13:36:26.384Z,101615.53
2023-01-29T13:39:35.080Z,101614.13
2023-01-29T13:42:45.680Z,101615.94
2023-01-29T13:45:49.363Z,101621.03
2023-01-29T13:48:54.715Z,101615.25
2023-01-29T13:51:57.869Z,101614.81
2023-01-29T13:55:15.074Z,101622.31
2023-01-29T13:58:42.311Z,101615.09
2023-01-29T14:01:53.238Z,101617.50
2023-01-29T14:05:29.194Z,101621.91
2023-01-29T14:08:45.255Z,101620.63
2023-01-29T14:11:51.362Z,101616.50
2023-01-29T14:14:56.851Z,101626.44
2023-01-29T14:18:14.022Z,101628.28
2023-01-29T14:21:28.526Z,101623.75
2023-01-29T14:24:31.382Z,101619.94
2023-01-29T14:27:36.107Z,101621.06
2023-01-29T14:30:40.556Z,101617.22
2023-01-29T14:33:43.605Z,101620.34
2023-01-29T14:36:50.551Z,101631.25
2023-01-29T14:39:57.815Z,101630.41
2023-01-29T14:43:27.226Z,101629.25
2023-01-29T14:46:35.654Z,101624.00
2023-01-29T14:49:58.309Z,101627.66
2023-01-29T14:53:30.298Z,101625.00
2023-01-29T14:56:41.060Z,101609.94
2023-01-29T15:00:05.609Z,101629.66
2023-01-29T15:03:33.940Z,101634.03
2023-01-29T15:06:48.369Z,101622.09
2023-01-29T15:10:13.501Z,101627.81
2023-01-29T15:13:42.418Z,101616.38
2023-01-29T15:17:05.576Z,101633.22
2023-01-29T15:20:27.407Z,101629.97
2023-01-29T15:23:32.079Z,101624.97
2023-01-29T15:26:36.125Z,101632.94
2023-01-29T15:29:38.968Z,101630.50
2023-01-29T15:32:41.345Z,101641.56
2023-01-29T15:35:43.641Z,101632.19
2023-01-29T15:38:45.821Z,101641.41
2023-01-29T15:41:48.574Z,101646.09
2023-01-29T15:44:50.701Z,101627.94
2023-01-29T15:47:55.652Z,101641.97
2023-01-29T15:50:58.829Z,101638.56
2023-01-29T15:54:03.895Z,101637.00
2023-01-29T15:57:06.628Z,101641.69
2023-01-29T16:00:22.328Z,101638.69
2023-01-29T16:03:29.251Z,101643.97
2023-01-29T16:06:38.188Z,101648.47
2023-01-29T16:09:40.641Z,101657.44
2023-01-29T16:12:43.227Z,101638.00
2023-01-29T16:15:59.466Z,101644.25
2023-01-29T16:19:01.708Z,101649.31
2023-01-29T16:22:06.653Z,101650.59
2023-01-29T16:25:14.588Z,101641.84
2023-01-29T16:28:17.843Z,101647.78
2023-01-29T16:31:28.778Z,101635.16
2023-01-29T16:34:38.400Z,101639.16
2023-01-29T16:37:40.521Z,101642.41
2023-01-29T16:41:07.480Z,101641.84
2023-01-29T16:44:21.588Z,101641.41
2023-01-29T16:47:28.388Z,101639.41
2023-01-29T16:50:38.287Z,101649.31
2023-01-29T16:54:02.686Z,101644.78
2023-01-29T16:57:04.537Z,101644.66
2023-01-29T17:00:15.531Z,101632.28
2023-01-29T17:03:18.989Z,101630.44
2023-01-29T17:06:27.607Z,101644.94
2023-01-29T17:09:35.200Z,101637.72
2023-01-29T17:12:38.922Z,101638.00
2023-01-29T17:15:49.913Z,101646.06
2023-01-29T17:18:52.528Z,101631.63
2023-01-29T17:21:57.234Z,101636.47
2023-01-29T17:24:59.495Z,101634.47
2023-01-29T17:28:04.108Z,101641.25
2023-01-29T17:31:09.555Z,101629.94
2023-01-29T17:34:16.060Z,101628.25
2023-01-29T17:37:18.285Z,101642.81
2023-01-29T17:40:29.994Z,101641.56
2023-01-29T17:43:32.265Z,101626.13
2023-01-29T17:46:34.289Z,101619.84
2023-01-29T17:49:37.933Z,101643.94
2023-01-29T17:52:40.018Z,101641.38
2023-01-29T17:55:42.674Z,101635.91
2023-01-29T17:58:48.169Z,101643.50
2023-01-29T18:01:51.294Z,101643.50
2023-01-29T18:04:53.414Z,101645.34
2023-01-29T18:07:55.680Z,101641.03
2023-01-29T18:10:57.861Z,101649.41
2023-01-29T18:14:01.291Z,101641.16
2023-01-29T18:17:11.435Z,101655.63
2023-01-29T18:20:25.696Z,101664.16
2023-01-29T18:23:29.696Z,101667.69
2023-01-29T18:26:33.997Z,101660.09
2023-01-29T18:29:36.038Z,101665.47
2023-01-29T18:32:38.509Z,101668.72
2023-01-29T18:35:40.493Z,101661.59
2023-01-29T18:38:42.622Z,101666.31
2023-01-29T18:41:45.102Z,101668.16
2023-01-29T18:44:47.392Z,101658.66
2023-01-29T18:47:51.090Z,101658.91
2023-01-29T18:50:53.249Z,101664.03
2023-01-29T18:53:55.287Z,101659.63
2023-01-29T18:57:13.248Z,101665.00
2023-01-29T19:00:17.674Z,101662.25
2023-01-29T19:03:19.869Z,101658.91
2023-01-29T19:06:22.097Z,101665.31
2023-01-29T19:09:26.348Z,101664.03
2023-01-29T19:12:28.804Z,101662.03
2023-01-29T19:15:30.882Z,101672.25
2023-01-29T19:18:32.988Z,101672.22
2023-01-29T19:21:38.732Z,101672.22
2023-01-29T19:24:41.102Z,101676.69
2023-01-29T19:27:43.374Z,101674.56
2023-01-29T19:30:46.033Z,101677.78
2023-01-29T19:33:48.940Z,101671.94
2023-01-29T19:36:51.013Z,101666.72
2023-01-29T19:39:53.967Z,101677.94
2023-01-29T19:42:56.610Z,101676.06
2023-01-29T19:46:00.918Z,101681.41
2023-01-29T19:49:03.738Z,101685.06
2023-01-29T19:52:07.571Z,101675.50
2023-01-29T19:55:11.307Z,101677.34
2023-01-29T19:58:14.052Z,101675.75
2023-01-29T20:01:21.393Z,101679.94
2023-01-29T20:04:23.632Z,101660.28
2023-01-29T20:07:26.614Z,101675.75
2023-01-29T20:10:28.751Z,101665.56
2023-01-29T20:13:31.025Z,101665.75
2023-01-29T20:16:33.145Z,101659.59
2023-01-29T20:19:35.248Z,101661.72
2023-01-29T20:22:38.416Z,101657.91
2023-01-29T20:25:42.059Z,101655.91
2023-01-29T20:28:48.328Z,101660.09
2023-01-29T20:31:50.491Z,101657.34
2023-01-29T20:34:52.558Z,101662.59
2023-01-29T20:37:54.504Z,101655.56
2023-01-29T20:41:04.573Z,101658.97
2023-01-29T20:44:08.613Z,101648.88
2023-01-29T20:47:10.734Z,101658.38
2023-01-29T20:50:16.345Z,101653.84
2023-01-29T20:53:18.755Z,101650.09
2023-01-29T20:56:36.253Z,101662.03
2023-01-29T20:59:45.336Z,101655.81
2023-01-29T21:02:48.820Z,101645.72
2023-01-29T21:05:53.570Z,101652.94
2023-01-29T21:08:56.034Z,101652.69
2023-01-29T21:11:59.406Z,101645.88
2023-01-29T21:15:04.822Z,101645.88
2023-01-29T21:18:07.092Z,101648.69
2023-01-29T21:21:09.331Z,101639.00
2023-01-29T21:24:13.124Z,101647.16
2023-01-29T21:27:15.232Z,101646.50
2023-01-29T21:30:19.879Z,101638.09
2023-01-29T21:33:22.152Z,101642.38
2023-01-29T21:36:32.662Z,101633.63
2023-01-29T21:39:35.661Z,101637.41
2023-01-29T21:42:58.019Z,101625.41
2023-01-29T21:46:12.155Z,101621.53
2023-01-29T21:49:16.663Z,101626.63
2023-01-29T21:52:18.708Z,101618.69
2023-01-29T21:55:20.756Z,101615.31
2023-01-29T21:58:24.958Z,101608.53
2023-01-29T22:01:37.656Z,101602.41
2023-01-29T22:04:42.763Z,101610.63
2023-01-29T22:07:48.216Z,101601.16
2023-01-29T22:10:53.176Z,101590.81
2023-01-29T22:13:58.353Z,101610.22
2023-01-29T22:17:02.463Z,101602.88
2023-01-29T22:20:05.990Z,101592.97
2023-01-29T22:23:08.467Z,101593.94
2023-01-29T22:26:15.271Z,101579.06
2023-01-29T22:29:18.416Z,101586.44
2023-01-29T22:32:20.673Z,101583.59
2023-01-29T22:35:25.851Z,101580.63
2023-01-29T22:38:31.638Z,101574.16
2023-01-29T22:41:36.854Z,101573.28
2023-01-29T22:44:41.821Z,101578.69
2023-01-29T22:47:44.905Z,101560.13
2023-01-29T22:50:53.077Z,101565.91
2023-01-29T22:54:03.480Z,101567.19
2023-01-29T22:57:10.242Z,101566.66
2023-01-29T23:00:16.849Z,101562.38
2023-01-29T23:03:19.256Z,101563.94
2023-01-29T23:06:22.986Z,101568.63
2023-01-29T23:09:26.706Z,101560.72
2023-01-29T23:12:29.495Z,101548.66
2023-01-29T23:15:31.566Z,101556.44
2023-01-29T23:18:33.843Z,101553.03
2023-01-29T23:21:36.022Z,101539.47
2023-01-29T23:24:38.736Z,101539.47
2023-01-29T23:27:41.239Z,101544.84
2023-01-29T23:30:45.449Z,101533.25
2023-01-29T23:33:51.089Z,101524.91
2023-01-29T23:36:54.081Z,101522.78
2023-01-29T23:39:56.066Z,101520.78
2023-01-29T23:42:58.221Z,101514.72
2023-01-29T23:46:01.951Z,101508.91
2023-01-29T23:49:05.580Z,101527.44
2023-01-29T23:52:11.373Z,101508.63
2023-01-29T23:55:13.714Z,101522.63
2023-01-29T23:58:15.675Z,101522.06
